Central Oregon RPC :: CEDARVILLE A

liberation: 2020-09-05  07:00     latitude: 41.558500     longitude: -120.395100 52 birds
# LOFT PRING MILES ARRIVAL SPEED ToWin
1 HENDRICKSON FAMILY LOFT AU20-CORP-5251 193.205 2020-09-05 11:12:41.677 1345.661 00:00:00
2 HENDRICKSON FAMILY LOFT IF20-EART-0017 193.205 2020-09-05 11:12:45.990 1345.278 00:00:04
3 HENDRICKSON FAMILY LOFT AU20-CORP-5252 193.205 2020-09-05 11:12:47.090 1345.181 00:00:05
4 HENDRICKSON FAMILY LOFT AU20-CORP-5280 193.205 2020-09-05 11:17:38.664 1319.809 00:04:57
5 HENDRICKSON FAMILY LOFT AU20-CORP-5285 193.205 2020-09-05 11:17:47.744 1319.034 00:05:06
6 AMERICAN LOFT AU20-CORP-5445 193.125 2020-09-05 11:18:02.609 1317.217 00:05:27
7 HENDRICKSON FAMILY LOFT AU20-CORP-5266 193.205 2020-09-05 11:19:22.689 1310.987 00:06:41
8 HENDRICKSON FAMILY LOFT AU20-CORP-5292 193.205 2020-09-05 11:21:38.329 1299.659 00:08:57
9 HENDRICKSON FAMILY LOFT AU20-CORP-5267 193.205 2020-09-05 11:21:38.696 1299.629 00:08:57
10 HENDRICKSON FAMILY LOFT AU20-CORP-5268 193.205 2020-09-05 11:25:30.632 1280.707 00:12:49
11 AMERICAN LOFT AU20-CORP-5409 193.125 2020-09-05 11:25:54.906 1278.224 00:13:20
12 AMERICAN LOFT AU20-CORP-5519 193.125 2020-09-05 11:28:49.196 1264.412 00:16:14
13 RUETER FAMILY LOFT AU20-CORP-4661 223.008 2020-09-05 12:15:39.719 1243.399 00:23:59
14 STEELE LOFT AU20-CORP-5035 195.588 2020-09-05 11:43:31.868 1214.100 00:27:43
15 STEELE LOFT AU20-CORP-5030 195.588 2020-09-05 11:43:57.178 1212.297 00:28:08
16 TOPIGEONUSA AU20-CORP-4383 195.356 2020-09-05 11:47:40.281 1195.206 00:32:10
17 ROCKY TOP AU20-ARPU-28128 188.649 2020-09-05 11:44:11.845 1168.282 00:37:28
18 ROCKY TOP AU20-CORP-4442 188.649 2020-09-05 11:44:13.842 1168.145 00:37:30
19 STEELE LOFT AU20-CORP-5015 195.588 2020-09-05 12:02:10.835 1139.171 00:46:22
20 AMERICAN LOFT AU20-CORP-5485 193.125 2020-09-05 12:02:24.046 1124.002 00:49:49
21 AMERICAN LOFT AU20-CORP-5417 193.125 2020-09-05 12:06:59.172 1107.213 00:54:24
22 RUETER FAMILY LOFT AU20-CORP-4663 223.008 2020-09-05 13:06:05.473 1072.120 01:14:25
23 RUETER FAMILY LOFT AU20-CORP-4682 223.008 2020-09-05 13:06:24.596 1071.187 01:14:44
24 AMERICAN LOFT AU20-CORP-5506 193.125 2020-09-05 12:58:30.052 948.112 01:45:55
25 STEELE LOFT AU20-CORP-5039 195.588 2020-09-05 13:03:35.374 946.769 01:47:47
26 TOPIGEONUSA AU20-CORP-4310 195.356 2020-09-05 13:47:45.194 843.222 02:32:15
27 TOPIGEONUSA AU20-CORP-4392 195.356 2020-09-05 14:48:00.689 734.654 03:32:30
28 RUETER FAMILY LOFT AU20-CORP-4676 223.008 2020-09-05 17:03:34.472 650.282 05:11:54
29 STEELE LOFT AU20-BORD-20064 195.588 2020-09-05 17:42:29.571 535.781 06:26:41
30 RUETER FAMILY LOFT AU20-CORP-4658 223.008 2020-09-05 19:37:37.360 518.060 07:45:57
31 STEELE LOFT AU20-CORP-5010 195.588 2020-09-05 18:18:54.038 507.048 07:03:05
32 STEELE LOFT AU20-ARPU-37453 195.588 2020-09-05 18:31:26.776 497.848 07:15:38
33 ROCKY TOP AU20-CORP-4405 188.649 2020-09-05 18:18:07.989 489.613 07:11:24
34 STEELE LOFT AU20-CORP-5007 195.588 2020-09-05 19:12:57.201 469.655 07:57:09
35 RUETER FAMILY LOFT AU20-CORP-4646 223.008 2020-09-06 07:14:22.699 462.731 09:16:32
36 STEELE LOFT AU20-CORP-5013 195.588 2020-09-05 19:29:26.998 459.317 08:13:38
37 RUETER FAMILY LOFT AU20-CORP-4684 223.008 2020-09-06 07:24:26.978 457.301 09:26:37
38 RUETER FAMILY LOFT AU20-CORP-4648 223.008 2020-09-06 07:35:52.164 451.296 09:38:02
39 ROCKY TOP AU20-CORP-4446 188.649 2020-09-05 19:21:41.053 447.661 08:14:57
40 ROCKY TOP AU20-GSC-1299 188.649 2020-09-05 19:36:08.029 439.106 08:29:24
41 ROCKY TOP AU20-CORP-4404 188.649 2020-09-06 07:11:11.071 392.918 09:58:17
42 ROCKY TOP AU20-CORP-4445 188.649 2020-09-06 08:02:05.086 370.595 10:49:11
43 ROCKY TOP AU20-PNW-2501 188.649 2020-09-06 08:07:28.635 368.378 10:54:34
44 ROCKY TOP AU20-TAC-2774 188.649 2020-09-06 09:30:51.892 337.182 12:17:58
45 ROCKY TOP AU20-CORP-4455 188.649 2020-09-06 10:51:36.089 311.631 13:38:42
46 TIM GRAVES AU20-CORP-4720 187.408 2020-09-06 12:32:16.861 282.852 15:21:00
AMERICAN LOFT AU20-CORP-5487 0 0000-00-00 00:00:00.000 0.000 00:00:00
AMERICAN LOFT AU20-CORP-5575 0 0000-00-00 00:00:00.000 0.000 00:00:00
ROCKY TOP AU20-CORP-4461 0 0000-00-00 00:00:00.000 0.000 00:00:00
RUETER FAMILY LOFT AU20-CORP-4649 0 0000-00-00 00:00:00.000 0.000 00:00:00
STEELE LOFT AU20-ARPU-37452 0 0000-00-00 00:00:00.000 0.000 00:00:00
TOPIGEONUSA AU20-CORP-4361 0 0000-00-00 00:00:00.000 0.000 00:00:00